Time;durP1;ratioP1;P1;durP2;ratioP2;P2;SDS_P1;SDS_P2;PMS_P1;PMS_P2;Temp;Humidity;BMP_temperature;BMP_pressure;BME280_temperature;BME280_humidity;BME280_pressure;Samples;Min_cycle;Max_cycle;Signal;HPM_P1;HPM_P2
2022/01/31 00:04:53;;;;;;;2.42;1.23;;;;;;;19.26;46.23;96870.31;10538230;28;20036;-51
2022/01/31 00:10:13;;;;;;;3.20;1.50;;;;;;;19.23;46.16;96852.84;10533117;28;20571;-51
2022/01/31 00:15:38;;;;;;;5.60;1.30;;;;;;;19.22;46.12;96842.38;10535990;28;20032;-52
2022/01/31 00:20:58;;;;;;;4.03;1.60;;;;;;;19.21;46.20;96825.38;10530132;28;20040;-51
2022/01/31 00:26:17;;;;;;;2.42;1.20;;;;;;;19.20;46.17;96814.88;10535540;28;20562;-51
2022/01/31 00:31:36;;;;;;;2.17;1.15;;;;;;;19.19;46.13;96787.09;10540115;28;20048;-52
2022/01/31 00:36:56;;;;;;;2.67;1.20;;;;;;;19.17;46.13;96783.94;10541955;28;20052;-51
2022/01/31 00:42:16;;;;;;;2.30;1.20;;;;;;;19.16;46.16;96774.22;10542461;28;20479;-51
2022/01/31 00:47:39;;;;;;;3.33;1.10;;;;;;;19.14;45.83;96761.03;10542782;28;20452;-51
2022/01/31 00:52:59;;;;;;;2.60;1.23;;;;;;;19.13;45.81;96770.28;10540140;28;20052;-54
2022/01/31 00:58:18;;;;;;;2.85;1.40;;;;;;;19.12;45.82;96757.09;10538432;28;20105;-51
2022/01/31 01:03:38;;;;;;;2.42;1.40;;;;;;;19.10;45.95;96749.31;10535300;28;20040;-51
2022/01/31 01:08:57;;;;;;;2.33;1.27;;;;;;;19.08;45.82;96735.34;10541100;28;20048;-53
2022/01/31 01:14:17;;;;;;;1.90;1.02;;;;;;;19.08;45.92;96729.16;10540200;28;20040;-51
2022/01/31 01:19:37;;;;;;;2.35;1.20;;;;;;;19.07;45.80;96727.53;10528432;28;20426;-51
2022/01/31 01:24:57;;;;;;;1.73;1.15;;;;;;;19.05;45.74;96717.09;10523723;28;20052;-51
2022/01/31 01:30:17;;;;;;;2.90;1.27;;;;;;;19.03;45.75;96716.59;10524992;28;20051;-52
2022/01/31 01:35:39;;;;;;;2.13;1.02;;;;;;;19.02;45.63;96704.22;10537409;28;20123;-52
2022/01/31 01:41:00;;;;;;;2.42;1.30;;;;;;;19.01;45.56;96708.03;10523826;28;20048;-52
2022/01/31 01:46:20;;;;;;;2.92;1.48;;;;;;;19.01;45.53;96688.34;10521598;28;20040;-52
2022/01/31 01:51:40;;;;;;;2.40;1.20;;;;;;;19.00;45.58;96682.16;10522142;28;20052;-52
2022/01/31 01:57:03;;;;;;;1.52;1.00;;;;;;;18.97;45.50;96663.91;10523642;28;20067;-52
2022/01/31 02:02:22;;;;;;;2.13;1.10;;;;;;;18.96;45.55;96619.91;10523524;28;20625;-52
2022/01/31 02:07:45;;;;;;;2.47;1.20;;;;;;;18.95;45.43;96612.13;10526008;28;20036;-53
2022/01/31 02:13:08;;;;;;;2.40;0.90;;;;;;;18.95;45.33;96598.63;10522068;28;20055;-52
2022/01/31 02:18:55;;;;;;;2.42;1.05;;;;;;;18.92;45.35;96581.19;10520398;28;20109;-52
2022/01/31 02:24:35;;;;;;;2.72;1.20;;;;;;;18.92;45.45;96561.53;10499508;28;20060;-53
2022/01/31 02:30:16;;;;;;;3.38;1.30;;;;;;;18.90;45.34;96548.34;10532538;28;20052;-52
2022/01/31 02:35:39;;;;;;;1.77;1.08;;;;;;;18.89;45.22;96525.16;10534239;28;20048;-52
2022/01/31 02:41:00;;;;;;;2.13;1.05;;;;;;;18.88;45.28;96504.69;10539624;28;20032;-52
2022/01/31 02:46:22;;;;;;;2.97;1.10;;;;;;;18.86;45.26;96500.75;10533570;28;20048;-52
2022/01/31 02:51:55;;;;;;;3.20;1.13;;;;;;;18.86;45.23;96488.03;10513085;28;20044;-54
2022/01/31 02:57:14;;;;;;;2.13;1.20;;;;;;;18.83;45.23;96450.09;10516237;28;20105;-53
2022/01/31 03:02:34;;;;;;;1.70;1.10;;;;;;;18.82;45.35;96451.22;10517157;28;20098;-51
2022/01/31 03:07:53;;;;;;;1.73;0.90;;;;;;;18.80;45.05;96442.66;10537516;28;20043;-53
2022/01/31 03:13:13;;;;;;;1.15;0.80;;;;;;;18.79;45.25;96436.44;10518142;28;20181;-55
2022/01/31 03:18:40;;;;;;;1.80;1.00;;;;;;;18.77;44.97;96442.16;10520540;28;20059;-53
2022/01/31 03:23:59;;;;;;;1.45;1.00;;;;;;;18.77;45.01;96444.84;10525930;28;20112;-51
2022/01/31 03:29:19;;;;;;;1.40;0.90;;;;;;;18.74;44.99;96434.75;10521060;28;20406;-51
2022/01/31 03:34:39;;;;;;;2.08;0.98;;;;;;;18.75;45.14;96419.31;10533350;28;20040;-51
2022/01/31 03:39:58;;;;;;;3.05;1.15;;;;;;;18.72;45.16;96399.19;10514062;28;20546;-52
2022/01/31 03:45:19;;;;;;;2.08;1.00;;;;;;;18.71;44.88;96376.00;10513991;28;20060;-52
2022/01/31 03:50:41;;;;;;;1.23;0.90;;;;;;;18.69;44.90;96340.47;10517130;28;20051;-52
2022/01/31 03:56:00;;;;;;;1.77;1.00;;;;;;;18.69;44.83;96324.28;10531299;28;20067;-52
2022/01/31 04:01:26;;;;;;;1.65;1.00;;;;;;;18.67;44.88;96310.34;10503730;28;20089;-53
2022/01/31 04:06:46;;;;;;;1.73;1.00;;;;;;;18.68;44.92;96292.22;10529295;28;20085;-52
2022/01/31 04:12:05;;;;;;;1.83;0.98;;;;;;;18.67;44.82;96301.47;10534007;28;20052;-51
2022/01/31 04:17:25;;;;;;;2.40;1.02;;;;;;;18.64;44.85;96289.44;10534392;28;20040;-54
2022/01/31 04:22:56;;;;;;;1.60;0.90;;;;;;;18.63;44.78;96277.03;10526360;28;20048;-51
2022/01/31 04:28:22;;;;;;;2.70;1.00;;;;;;;18.61;44.72;96252.31;10532232;28;20048;-52
2022/01/31 04:33:42;;;;;;;1.80;0.80;;;;;;;18.60;44.75;96258.81;10531444;28;20082;-51
2022/01/31 04:39:02;;;;;;;1.50;0.93;;;;;;;18.60;44.75;96277.69;10520007;28;20055;-53
2022/01/31 04:44:22;;;;;;;1.52;0.90;;;;;;;18.58;44.75;96261.88;10528672;28;20060;-51
2022/01/31 04:49:42;;;;;;;3.25;1.17;;;;;;;18.58;44.75;96250.25;10533067;28;20495;-51
2022/01/31 04:55:01;;;;;;;1.25;0.90;;;;;;;18.56;44.81;96244.41;10533251;28;20097;-52
2022/01/31 05:00:20;;;;;;;1.77;0.90;;;;;;;18.54;44.79;96223.19;10532964;28;20467;-53
2022/01/31 05:05:42;;;;;;;1.95;1.10;;;;;;;18.54;44.69;96198.91;10535324;28;20127;-54
2022/01/31 05:11:01;;;;;;;1.40;0.90;;;;;;;18.52;44.65;96186.84;10531233;28;20040;-51
2022/01/31 05:16:22;;;;;;;2.47;1.38;;;;;;;18.52;44.88;96193.06;10539338;28;20044;-51
2022/01/31 05:21:41;;;;;;;3.58;1.75;;;;;;;18.52;45.27;96157.19;10538954;28;20058;-53
2022/01/31 05:27:00;;;;;;;2.22;1.00;;;;;;;18.52;45.26;96144.50;10538055;28;20427;-53
2022/01/31 05:32:20;;;;;;;2.17;1.15;;;;;;;18.53;45.43;96142.59;10537776;28;20056;-51
2022/01/31 05:37:41;;;;;;;1.67;0.90;;;;;;;18.53;45.50;96115.63;10536534;28;20070;-52
2022/01/31 05:43:01;;;;;;;2.17;1.02;;;;;;;18.54;45.47;96109.09;10545864;28;20094;-51
2022/01/31 05:48:20;;;;;;;1.90;1.10;;;;;;;18.54;45.32;96101.81;10537383;28;20085;-51
2022/01/31 05:53:40;;;;;;;3.70;1.20;;;;;;;18.55;45.71;96086.41;10532583;28;20048;-53
2022/01/31 05:58:59;;;;;;;2.65;0.80;;;;;;;18.56;45.82;96071.78;10527480;28;20469;-50
2022/01/31 06:04:18;;;;;;;2.17;0.90;;;;;;;18.58;45.87;96075.72;10521373;28;20032;-53
2022/01/31 06:09:38;;;;;;;3.00;1.10;;;;;;;18.60;46.07;96063.81;10525454;28;20077;-52
2022/01/31 06:14:58;;;;;;;1.50;0.77;;;;;;;18.62;45.85;96075.03;10535240;28;20059;-50
2022/01/31 06:20:17;;;;;;;5.15;1.00;;;;;;;18.63;45.87;96069.31;10535072;28;20048;-52
2022/01/31 06:25:37;;;;;;;4.75;1.42;;;;;;;18.64;45.85;96052.03;10534876;28;20543;-51
2022/01/31 06:30:57;;;;;;;8.23;2.10;;;;;;;18.68;45.75;96047.53;10515866;28;20054;-51
2022/01/31 06:36:18;;;;;;;10.05;2.53;;;;;;;18.71;45.79;96046.06;10517114;28;20059;-52
2022/01/31 06:41:37;;;;;;;6.10;1.95;;;;;;;18.74;45.76;96040.00;10529733;28;20036;-52
2022/01/31 06:46:57;;;;;;;9.23;2.22;;;;;;;18.76;45.57;96041.22;10528274;28;20048;-54
2022/01/31 06:52:17;;;;;;;7.53;2.28;;;;;;;18.79;45.60;96015.47;10534330;28;20046;-52
2022/01/31 06:57:37;;;;;;;5.10;2.00;;;;;;;18.82;45.62;96011.34;10536465;28;20060;-51
2022/01/31 07:02:56;;;;;;;8.57;2.30;;;;;;;18.86;45.76;96001.47;10526138;28;20055;-52
2022/01/31 07:08:16;;;;;;;7.25;2.35;;;;;;;18.86;45.65;95982.56;10535085;28;20418;-51
2022/01/31 07:13:38;;;;;;;7.95;2.10;;;;;;;18.88;45.63;95958.72;10540027;28;20052;-51
2022/01/31 07:19:07;;;;;;;6.55;2.17;;;;;;;18.89;45.67;95954.88;10536087;28;20094;-51
2022/01/31 07:29:55;;;;;;;7.90;2.20;;;;;;;18.91;45.57;95904.06;10531721;28;19980;-51
2022/01/31 07:35:15;;;;;;;6.80;2.40;;;;;;;18.90;45.40;95884.38;10530537;28;20055;-53
2022/01/31 07:40:34;;;;;;;4.90;2.08;;;;;;;18.92;45.54;95874.03;10534309;28;20052;-51
2022/01/31 07:45:54;;;;;;;5.53;2.17;;;;;;;18.92;45.38;95865.16;10531177;28;20560;-51
2022/01/31 07:51:13;;;;;;;7.28;2.15;;;;;;;18.94;45.18;95879.88;10528670;28;20051;-53
2022/01/31 07:56:33;;;;;;;6.05;2.10;;;;;;;18.94;45.00;95868.31;10540174;28;20056;-52
2022/01/31 08:01:53;;;;;;;6.65;2.58;;;;;;;18.95;44.91;95872.56;10528631;28;20089;-52
2022/01/31 08:07:12;;;;;;;4.45;1.73;;;;;;;18.94;44.77;95865.59;10520061;28;20444;-52
2022/01/31 08:12:35;;;;;;;4.95;2.10;;;;;;;18.94;44.68;95846.72;10533567;28;20097;-52
2022/01/31 08:17:54;;;;;;;6.50;1.98;;;;;;;18.94;44.86;95833.22;10530370;28;20047;-52
2022/01/31 08:23:14;;;;;;;4.68;2.15;;;;;;;18.94;44.63;95815.09;10536326;28;20036;-51
2022/01/31 08:28:49;;;;;;;6.00;2.33;;;;;;;18.93;44.76;95810.84;10534696;28;20411;-51
2022/01/31 08:39:34;;;;;;;3.95;2.00;;;;;;;18.93;44.42;95796.53;10534629;28;20047;-51
2022/01/31 08:44:53;;;;;;;4.50;1.95;;;;;;;18.92;44.33;95776.09;10534246;28;20094;-51
2022/01/31 08:50:13;;;;;;;8.43;2.63;;;;;;;18.89;41.91;95760.59;10535023;28;20044;-51
2022/01/31 08:55:35;;;;;;;5.63;2.20;;;;;;;18.87;43.69;95741.25;10540545;28;20064;-52
2022/01/31 09:01:06;;;;;;;4.90;2.05;;;;;;;18.88;43.75;95732.03;10527991;28;20040;-52
2022/01/31 09:06:27;;;;;;;5.40;2.08;;;;;;;18.88;43.38;95723.94;10521675;28;20055;-52
2022/01/31 09:11:47;;;;;;;5.00;2.25;;;;;;;18.87;43.41;95709.66;10540901;28;20392;-51
2022/01/31 09:17:07;;;;;;;7.10;1.90;;;;;;;18.87;43.36;95703.47;10530332;28;20044;-51
2022/01/31 09:22:27;;;;;;;5.03;1.65;;;;;;;18.87;43.45;95690.75;10537181;28;20052;-50
2022/01/31 09:27:46;;;;;;;5.15;1.95;;;;;;;18.86;43.25;95675.72;10539036;28;20048;-51
2022/01/31 09:33:05;;;;;;;3.80;2.10;;;;;;;18.86;43.49;95661.44;10531017;28;20048;-51
2022/01/31 09:38:26;;;;;;;3.33;1.42;;;;;;;18.87;43.73;95660.31;10535265;28;20122;-51
2022/01/31 09:49:06;;;;;;;43.42;22.05;;;;;;;18.86;46.88;95647.97;10523819;28;20051;-51
2022/01/31 09:54:27;;;;;;;28.30;12.63;;;;;;;18.85;46.71;95636.34;10533934;28;20097;-51
2022/01/31 09:59:46;;;;;;;19.75;9.35;;;;;;;18.85;46.51;95625.56;10535867;28;20067;-52
2022/01/31 10:05:07;;;;;;;19.55;9.32;;;;;;;18.83;46.17;95614.34;10534945;28;20036;-52
2022/01/31 10:10:28;;;;;;;14.63;8.15;;;;;;;18.81;46.27;95602.34;10524483;28;20035;-53
2022/01/31 10:22:13;;;;;;;14.35;7.15;;;;;;;18.79;45.82;95570.28;10526734;28;20048;-52
2022/01/31 10:27:34;;;;;;;12.65;6.53;;;;;;;18.79;45.54;95551.38;10511582;28;20064;-51
2022/01/31 10:32:55;;;;;;;11.50;5.90;;;;;;;18.77;45.38;95543.63;10534527;28;20109;-51
2022/01/31 10:38:19;;;;;;;12.32;5.85;;;;;;;18.77;45.40;95527.44;10537385;28;20040;-51
2022/01/31 10:55:16;;;;;;;12.02;5.30;;;;;;;18.73;44.97;95510.41;10530148;28;20074;-51
2022/01/31 11:00:37;;;;;;;9.15;4.43;;;;;;;18.74;45.03;95497.72;10537112;28;20056;-51
2022/01/31 11:06:00;;;;;;;9.02;4.18;;;;;;;18.72;44.78;95487.25;10523161;28;20051;-51
2022/01/31 11:11:20;;;;;;;7.20;3.90;;;;;;;18.72;44.75;95478.41;10531671;28;20410;-51
2022/01/31 11:16:42;;;;;;;9.10;4.20;;;;;;;18.70;44.78;95473.34;10533665;28;20108;-51
2022/01/31 11:22:05;;;;;;;7.30;3.75;;;;;;;18.69;44.65;95471.75;10527671;28;20074;-50
2022/01/31 11:27:27;;;;;;;6.72;3.40;;;;;;;18.68;44.69;95472.09;10520740;28;20048;-51
2022/01/31 11:32:48;;;;;;;6.45;3.40;;;;;;;18.67;44.57;95467.84;10532494;28;20052;-50
2022/01/31 11:38:07;;;;;;;5.75;3.40;;;;;;;18.66;44.52;95461.69;10521577;28;20040;-51
2022/01/31 11:43:28;;;;;;;4.93;2.60;;;;;;;18.65;44.48;95453.94;10536221;28;20032;-51
2022/01/31 11:48:48;;;;;;;5.07;2.78;;;;;;;18.64;44.38;95442.38;10532674;28;20066;-51
2022/01/31 11:54:07;;;;;;;4.45;2.90;;;;;;;18.64;44.49;95438.88;10535165;28;20044;-51
2022/01/31 11:59:27;;;;;;;5.30;2.70;;;;;;;18.63;44.42;95431.94;10531501;28;20051;-51
2022/01/31 12:04:49;;;;;;;4.22;2.25;;;;;;;18.62;44.36;95436.56;10533429;28;20673;-51
2022/01/31 12:10:16;;;;;;;3.80;2.45;;;;;;;18.60;44.25;95427.22;10533263;28;20044;-51
2022/01/31 12:15:58;;;;;;;2.70;1.98;;;;;;;18.58;44.12;95428.38;10533000;28;20108;-51
2022/01/31 12:27:06;;;;;;;3.45;2.00;;;;;;;18.55;44.14;95412.09;10515639;28;21081;-51
2022/01/31 12:32:34;;;;;;;2.63;1.77;;;;;;;18.56;44.31;95408.25;10531940;28;20047;-50
2022/01/31 12:37:54;;;;;;;3.35;2.00;;;;;;;18.53;44.20;95406.28;10534019;28;20062;-51
2022/01/31 12:43:36;;;;;;;2.72;1.80;;;;;;;18.54;44.27;95415.91;10533642;28;20101;-51
2022/01/31 12:49:07;;;;;;;3.45;1.80;;;;;;;18.52;44.05;95418.19;10531512;28;20040;-51
2022/01/31 12:54:27;;;;;;;2.58;1.70;;;;;;;18.51;44.08;95405.84;10530699;28;20040;-51
2022/01/31 12:59:49;;;;;;;3.05;1.90;;;;;;;18.49;44.04;95414.28;10524841;28;20048;-52
2022/01/31 13:05:09;;;;;;;3.33;1.90;;;;;;;18.49;44.06;95398.09;10525666;28;20085;-51
2022/01/31 13:10:38;;;;;;;3.67;1.77;;;;;;;18.47;43.98;95407.69;10532201;28;20052;-51
2022/01/31 13:16:10;;;;;;;;;;;;;;;18.45;43.79;95405.34;10531982;28;20495;-51
2022/01/31 13:21:30;;;;;;;2.35;1.67;;;;;;;18.44;43.94;95417.25;10520225;28;19928;-51
2022/01/31 13:26:58;;;;;;;3.70;1.73;;;;;;;18.43;44.04;95417.63;10512643;28;20471;-50
2022/01/31 13:32:17;;;;;;;2.35;1.80;;;;;;;18.42;43.92;95414.13;10528002;28;20548;-50
2022/01/31 13:37:54;;;;;;;2.67;1.50;;;;;;;18.42;43.93;95424.13;10538425;28;20048;-50
2022/01/31 13:43:16;;;;;;;1.65;1.13;;;;;;;18.41;44.02;95417.19;10538965;28;20526;-51
2022/01/31 13:54:15;;;;;;;2.28;1.50;;;;;;;18.37;43.86;95422.50;10531178;28;20055;-50
2022/01/31 13:59:35;;;;;;;2.28;1.40;;;;;;;18.37;43.93;95428.66;10522965;28;20415;-51
2022/01/31 14:04:54;;;;;;;1.60;1.30;;;;;;;18.37;43.74;95422.50;10525595;28;20040;-50
2022/01/31 14:10:24;;;;;;;1.40;1.23;;;;;;;18.34;43.95;95429.34;10520730;28;20101;-51
2022/01/31 14:15:46;;;;;;;3.03;1.30;;;;;;;18.35;43.73;95428.22;10537182;28;20116;-50
2022/01/31 14:21:07;;;;;;;1.58;1.17;;;;;;;18.33;43.78;95413.53;10534442;28;20028;-51
2022/01/31 14:26:36;;;;;;;2.45;1.38;;;;;;;18.32;43.65;95420.81;10534761;28;20423;-51
2022/01/31 14:31:56;;;;;;;2.78;1.08;;;;;;;18.32;44.06;95420.81;10532995;28;20119;-53
2022/01/31 14:37:20;;;;;;;1.65;1.10;;;;;;;18.32;44.16;95420.81;10525336;28;20051;-53
2022/01/31 14:42:49;;;;;;;3.42;1.13;;;;;;;18.31;44.12;95418.50;10533809;28;20418;-51
2022/01/31 14:48:09;;;;;;;1.98;1.02;;;;;;;18.31;43.94;95416.56;10536509;28;20080;-51
2022/01/31 14:53:28;;;;;;;1.48;0.93;;;;;;;18.31;44.02;95408.47;10537918;28;20101;-50
2022/01/31 14:58:48;;;;;;;1.80;1.13;;;;;;;18.31;44.15;95397.69;10535129;28;20056;-51
2022/01/31 15:04:17;;;;;;;1.75;1.00;;;;;;;18.32;44.03;95418.13;10536582;28;20453;-51
2022/01/31 15:09:36;;;;;;;2.05;1.00;;;;;;;18.34;44.19;95420.47;10535311;28;20052;-51
2022/01/31 15:14:56;;;;;;;1.92;1.10;;;;;;;18.36;44.36;95421.69;10526976;28;20056;-51
2022/01/31 15:20:18;;;;;;;1.60;1.00;;;;;;;18.38;44.16;95419.44;10529676;28;20053;-50
2022/01/31 15:25:38;;;;;;;0.70;0.70;;;;;;;18.40;44.29;95421.00;10536597;28;20109;-51
2022/01/31 15:30:57;;;;;;;1.02;0.70;;;;;;;18.43;44.27;95425.69;10533817;28;20048;-53
2022/01/31 15:36:17;;;;;;;1.40;0.90;;;;;;;18.45;44.24;95426.91;10540673;28;20048;-51
2022/01/31 15:41:38;;;;;;;1.23;0.90;;;;;;;18.48;44.27;95430.81;10502651;28;20048;-51
2022/01/31 15:46:59;;;;;;;1.30;0.90;;;;;;;18.52;44.29;95426.28;10534064;28;20052;-50
2022/01/31 15:52:18;;;;;;;1.00;0.90;;;;;;;18.56;44.43;95435.22;10520214;28;20048;-51
2022/01/31 15:57:38;;;;;;;1.20;0.90;;;;;;;18.60;44.28;95432.63;10525659;28;20074;-51
2022/01/31 16:03:00;;;;;;;0.70;0.70;;;;;;;18.62;44.33;95441.94;10532616;28;20060;-51
2022/01/31 16:08:19;;;;;;;0.90;0.82;;;;;;;18.65;44.34;95454.72;10533602;28;20052;-51
2022/01/31 16:13:44;;;;;;;1.73;0.80;;;;;;;18.69;44.31;95458.28;10532774;28;20577;-50
2022/01/31 16:19:03;;;;;;;0.93;0.70;;;;;;;18.73;44.18;95456.44;10534555;28;20059;-51
2022/01/31 16:24:22;;;;;;;0.90;0.80;;;;;;;18.77;44.07;95461.91;10533636;28;20060;-51
2022/01/31 16:29:45;;;;;;;0.90;0.70;;;;;;;18.82;43.90;95471.69;10532624;28;20044;-52
2022/01/31 16:35:05;;;;;;;1.15;0.80;;;;;;;18.87;43.96;95479.50;10531564;28;20052;-50
2022/01/31 16:40:25;;;;;;;0.70;0.65;;;;;;;18.91;43.85;95480.38;10524679;28;20049;-50
2022/01/31 16:45:44;;;;;;;0.70;0.60;;;;;;;18.96;44.10;95488.22;10522155;28;20059;-51
2022/01/31 16:51:04;;;;;;;0.85;0.68;;;;;;;19.00;43.85;95489.06;10532138;28;20048;-51
2022/01/31 16:56:23;;;;;;;0.75;0.60;;;;;;;19.05;43.79;95493.41;10531630;28;20063;-51
2022/01/31 17:01:42;;;;;;;0.88;0.80;;;;;;;19.07;42.13;95497.34;10527633;28;20446;-50
2022/01/31 17:07:03;;;;;;;0.75;0.70;;;;;;;19.10;42.85;95493.13;10525632;28;20067;-51
2022/01/31 17:12:25;;;;;;;1.33;0.77;;;;;;;19.16;43.25;95499.81;10527474;28;20570;-51
2022/01/31 17:17:47;;;;;;;0.80;0.70;;;;;;;19.23;43.32;95504.56;10532799;28;20050;-50
2022/01/31 17:23:07;;;;;;;1.17;0.80;;;;;;;19.25;43.58;95508.50;10533306;28;20048;-51
2022/01/31 17:28:26;;;;;;;1.48;0.70;;;;;;;19.28;43.55;95512.41;10527621;28;20465;-50
2022/01/31 17:33:46;;;;;;;2.47;0.90;;;;;;;19.36;43.57;95511.41;10535539;28;20098;-50
2022/01/31 17:39:06;;;;;;;3.22;0.70;;;;;;;19.41;43.73;95515.78;10518497;28;20097;-51
2022/01/31 17:44:27;;;;;;;3.80;0.60;;;;;;;19.47;41.56;95520.53;10536169;28;20501;-51
2022/01/31 17:49:47;;;;;;;3.60;0.80;;;;;;;19.51;42.86;95521.41;10529625;28;20055;-52
2022/01/31 17:55:06;;;;;;;1.40;0.70;;;;;;;19.54;42.99;95531.50;10532980;28;20052;-51
2022/01/31 18:00:26;;;;;;;1.05;0.77;;;;;;;19.59;43.25;95525.03;10535342;28;20070;-51
2022/01/31 18:05:46;;;;;;;1.08;0.77;;;;;;;19.61;42.74;95535.47;10536180;28;20372;-49
2022/01/31 18:11:05;;;;;;;2.60;1.00;;;;;;;19.64;42.82;95535.56;10536085;28;20052;-51
2022/01/31 18:16:25;;;;;;;0.80;0.80;;;;;;;19.68;42.99;95546.41;10536242;28;20181;-50
2022/01/31 18:21:45;;;;;;;2.08;0.80;;;;;;;19.75;43.22;95547.38;10533375;28;20044;-50
2022/01/31 18:27:06;;;;;;;2.72;0.80;;;;;;;19.82;43.34;95556.78;10538524;28;20080;-51
2022/01/31 18:32:30;;;;;;;3.63;0.70;;;;;;;19.87;43.20;95567.28;10533581;28;20040;-50
2022/01/31 18:37:50;;;;;;;3.78;0.70;;;;;;;19.89;43.29;95579.31;10533981;28;20048;-50
2022/01/31 18:43:12;;;;;;;0.75;0.60;;;;;;;19.93;43.26;95569.38;10534074;28;20036;-50
2022/01/31 18:48:32;;;;;;;2.50;0.80;;;;;;;19.98;43.28;95576.41;10528835;28;20497;-50
2022/01/31 18:53:52;;;;;;;1.52;0.60;;;;;;;20.01;43.25;95586.50;10530889;28;20615;-49
2022/01/31 18:59:11;;;;;;;1.35;0.65;;;;;;;20.06;43.37;95583.50;10527831;28;20659;-50
2022/01/31 19:04:32;;;;;;;0.60;0.60;;;;;;;20.09;43.33;95582.81;10529404;28;20048;-51
2022/01/31 19:09:51;;;;;;;0.60;0.57;;;;;;;20.15;43.33;95591.41;10527161;28;20055;-51
2022/01/31 19:20:31;;;;;;;0.77;0.60;;;;;;;20.22;43.44;95613.16;10527717;28;20040;-50
2022/01/31 19:25:51;;;;;;;0.63;0.43;;;;;;;20.26;43.63;95616.72;10529163;28;20127;-53
2022/01/31 19:31:11;;;;;;;1.00;0.70;;;;;;;20.29;43.47;95623.34;10527189;28;20044;-51
2022/01/31 19:36:34;;;;;;;1.85;0.70;;;;;;;20.35;43.54;95635.44;10533271;28;20032;-51
2022/01/31 19:47:33;;;;;;;2.65;0.80;;;;;;;20.41;43.81;95642.13;10527632;28;20070;-49
2022/01/31 19:52:52;;;;;;;2.25;0.52;;;;;;;20.44;43.86;95646.81;10508585;28;20048;-50
2022/01/31 19:58:12;;;;;;;1.92;0.50;;;;;;;20.46;43.78;95655.34;10527939;28;20055;-52
2022/01/31 20:03:32;;;;;;;1.65;0.60;;;;;;;20.48;43.96;95652.28;10532377;28;20036;-51
2022/01/31 20:09:08;;;;;;;1.05;0.55;;;;;;;20.51;44.07;95668.59;10528315;28;20082;-52
2022/01/31 20:14:28;;;;;;;1.15;0.70;;;;;;;20.54;44.07;95683.31;10532631;28;20043;-50
2022/01/31 20:19:48;;;;;;;3.25;0.70;;;;;;;20.57;44.18;95711.59;10527415;28;20055;-51
2022/01/31 20:25:10;;;;;;;3.05;0.80;;;;;;;20.57;44.40;95714.31;10531142;28;20418;-51
2022/01/31 20:30:30;;;;;;;1.70;0.60;;;;;;;20.59;44.60;95730.97;10531986;28;20040;-50
2022/01/31 20:35:51;;;;;;;1.30;0.70;;;;;;;20.59;44.76;95730.97;10533056;28;20493;-50
2022/01/31 20:46:30;;;;;;;1.52;0.63;;;;;;;20.59;44.74;95744.50;10541383;28;20036;-50
2022/01/31 20:51:50;;;;;;;2.45;0.80;;;;;;;20.59;44.43;95753.44;10535402;28;20430;-51
2022/01/31 20:57:13;;;;;;;2.15;0.80;;;;;;;20.61;44.83;95758.50;10538570;28;20052;-50
2022/01/31 21:02:33;;;;;;;4.80;0.93;;;;;;;20.62;44.85;95777.09;10540411;28;20040;-50
2022/01/31 21:07:52;;;;;;;2.42;0.80;;;;;;;20.62;44.81;95778.97;10534480;28;20205;-50
2022/01/31 21:13:12;;;;;;;6.47;1.05;;;;;;;20.61;44.69;95790.97;10537458;28;20056;-53
2022/01/31 21:18:32;;;;;;;2.85;0.63;;;;;;;20.61;44.64;95813.38;10537580;28;20048;-54
2022/01/31 21:23:52;;;;;;;1.85;0.80;;;;;;;20.62;44.61;95819.56;10531443;28;20043;-51
2022/01/31 21:29:12;;;;;;;3.53;0.80;;;;;;;20.61;44.68;95839.66;10543590;28;20051;-51
2022/01/31 21:34:31;;;;;;;2.53;0.80;;;;;;;20.59;44.68;95833.78;10541537;28;20043;-51
2022/01/31 21:39:51;;;;;;;1.08;0.80;;;;;;;20.59;44.63;95853.53;10537438;28;20101;-51
2022/01/31 21:45:13;;;;;;;2.50;0.80;;;;;;;20.57;44.63;95853.09;10532262;28;20036;-51
2022/01/31 21:50:32;;;;;;;2.80;0.80;;;;;;;20.58;44.72;95860.09;10534670;28;20058;-51
2022/01/31 21:55:53;;;;;;;1.38;0.88;;;;;;;20.55;44.65;95858.06;10532079;28;20672;-52
2022/01/31 22:01:13;;;;;;;2.50;1.10;;;;;;;20.57;44.57;95855.00;10523037;28;20056;-51
2022/01/31 22:06:33;;;;;;;2.47;1.35;;;;;;;20.55;44.42;95869.66;10513971;28;20048;-51
2022/01/31 22:11:55;;;;;;;3.13;1.50;;;;;;;20.56;44.33;95867.75;10522597;28;20168;-51
2022/01/31 22:17:14;;;;;;;3.88;1.60;;;;;;;20.57;44.40;95884.78;10523714;28;20049;-53
2022/01/31 22:22:34;;;;;;;6.72;1.80;;;;;;;20.55;44.43;95896.72;10521581;28;20568;-52
2022/01/31 22:27:53;;;;;;;6.60;2.08;;;;;;;20.54;44.52;95900.59;10524476;28;20106;-51
2022/01/31 22:33:14;;;;;;;5.47;1.92;;;;;;;20.54;44.95;95900.59;10520867;28;20055;-51
2022/01/31 22:38:35;;;;;;;4.82;1.92;;;;;;;20.52;44.98;95905.56;10518457;28;20048;-51
2022/01/31 22:43:55;;;;;;;4.60;2.00;;;;;;;20.52;44.98;95912.88;10530212;28;20105;-51
2022/01/31 22:49:14;;;;;;;4.50;1.80;;;;;;;20.51;44.95;95916.72;10509261;28;20052;-50
2022/01/31 22:54:34;;;;;;;4.28;1.80;;;;;;;20.48;44.94;95920.13;10519151;28;20109;-52
2022/01/31 22:59:53;;;;;;;4.53;1.75;;;;;;;20.47;44.99;95924.75;10527717;28;20054;-50
2022/01/31 23:05:12;;;;;;;3.47;1.60;;;;;;;20.45;44.99;95945.97;10532817;28;20518;-51
2022/01/31 23:10:32;;;;;;;2.67;1.42;;;;;;;20.44;44.95;95949.03;10536523;28;20097;-51
2022/01/31 23:15:59;;;;;;;3.55;1.42;;;;;;;20.42;44.94;95959.41;10536433;28;20044;-51
2022/01/31 23:21:35;;;;;;;3.20;1.37;;;;;;;20.41;44.97;95971.38;10535784;28;20069;-51
